Time,TemperatureF,DewpointF,PressureIn,WindDirection,WindDirectionDegrees,WindSpeedMPH,WindSpeedGustMPH,Humidity,HourlyPrecipIn,Conditions,Clouds,dailyrainin,SolarRadiationWatts/m^2,SoftwareType,DateUTC
2013-08-04 00:04:00,64.5,59.0,29.88,WSW,242,2.0,-999.0,81,-99.99,,,0.00,0,weatherlink.com 1.10,2013-08-04 04:04:00,
2013-08-04 00:19:00,64.5,59.0,29.89,West,273,0.0,-999.0,82,-99.99,,,0.00,0,weatherlink.com 1.10,2013-08-04 04:19:00,
2013-08-04 00:34:00,64.2,59.0,29.89,WSW,257,1.0,-999.0,82,-99.99,,,0.00,0,weatherlink.com 1.10,2013-08-04 04:34:00,
2013-08-04 00:50:00,63.7,59.0,29.89,WSW,255,0.0,-999.0,83,-99.99,,,0.00,0,weatherlink.com 1.10,2013-08-04 04:50:00,
2013-08-04 01:04:00,63.2,58.0,29.89,WSW,255,1.0,-999.0,84,-99.99,,,0.00,0,weatherlink.com 1.10,2013-08-04 05:04:00,
2013-08-04 01:20:00,62.7,58.0,29.89,WSW,255,2.0,-999.0,85,-99.99,,,0.00,0,weatherlink.com 1.10,2013-08-04 05:20:00,
2013-08-04 01:35:00,62.3,58.0,29.89,SW,234,1.0,-999.0,86,-99.99,,,0.00,0,weatherlink.com 1.10,2013-08-04 05:35:00,
2013-08-04 01:50:00,62.1,58.0,29.89,SW,236,0.0,-999.0,87,-99.99,,,0.00,0,weatherlink.com 1.10,2013-08-04 05:50:00,
2013-08-04 02:05:00,61.9,58.0,29.89,SW,236,2.0,-999.0,87,-99.99,,,0.00,0,weatherlink.com 1.10,2013-08-04 06:05:00,
2013-08-04 02:20:00,61.7,58.0,29.89,SW,236,2.0,-999.0,88,-99.99,,,0.00,0,weatherlink.com 1.10,2013-08-04 06:20:00,
2013-08-04 02:35:00,61.6,58.0,29.89,SW,232,4.0,-999.0,88,-99.99,,,0.00,0,weatherlink.com 1.10,2013-08-04 06:35:00,
2013-08-04 02:50:00,61.4,58.0,29.89,SW,232,0.0,-999.0,88,-99.99,,,0.00,0,weatherlink.com 1.10,2013-08-04 06:50:00,
2013-08-04 03:05:00,61.1,58.0,29.89,SW,232,0.0,-999.0,89,-99.99,,,0.00,0,weatherlink.com 1.10,2013-08-04 07:05:00,
2013-08-04 03:20:00,60.8,58.0,29.89,SW,229,0.0,-999.0,89,-99.99,,,0.00,0,weatherlink.com 1.10,2013-08-04 07:20:00,
2013-08-04 03:35:00,60.4,57.0,29.89,WSW,238,1.0,-999.0,89,-99.99,,,0.00,0,weatherlink.com 1.10,2013-08-04 07:35:00,
2013-08-04 03:50:00,60.3,57.0,29.89,WSW,254,6.0,-999.0,89,-99.99,,,0.00,0,weatherlink.com 1.10,2013-08-04 07:50:00,
2013-08-04 04:05:00,60.3,57.0,29.89,WSW,244,4.0,-999.0,89,-99.99,,,0.00,0,weatherlink.com 1.10,2013-08-04 08:05:00,
2013-08-04 04:20:00,60.3,57.0,29.89,WSW,256,4.0,-999.0,88,-99.99,,,0.00,0,weatherlink.com 1.10,2013-08-04 08:20:00,
2013-08-04 04:35:00,60.2,56.0,29.89,WSW,251,0.0,-999.0,87,-99.99,,,0.00,0,weatherlink.com 1.10,2013-08-04 08:35:00,
2013-08-04 04:50:00,59.9,56.0,29.89,West,260,2.0,-999.0,87,-99.99,,,0.00,0,weatherlink.com 1.10,2013-08-04 08:50:00,
2013-08-04 05:05:00,59.6,56.0,29.89,WSW,257,2.0,-999.0,87,-99.99,,,0.00,0,weatherlink.com 1.10,2013-08-04 09:05:00,
2013-08-04 05:20:00,59.3,56.0,29.90,WSW,245,3.0,-999.0,88,-99.99,,,0.00,0,weatherlink.com 1.10,2013-08-04 09:20:00,
2013-08-04 05:35:00,59.0,56.0,29.90,WSW,250,0.0,-999.0,88,-99.99,,,0.00,0,weatherlink.com 1.10,2013-08-04 09:35:00,
2013-08-04 05:50:00,58.8,56.0,29.90,WSW,243,0.0,-999.0,89,-99.99,,,0.00,0,weatherlink.com 1.10,2013-08-04 09:50:00,
2013-08-04 06:05:00,58.6,55.0,29.90,WSW,247,2.0,-999.0,89,-99.99,,,0.00,0,weatherlink.com 1.10,2013-08-04 10:05:00,
2013-08-04 06:20:00,58.5,55.0,29.91,WSW,245,6.0,-999.0,89,-99.99,,,0.00,9,weatherlink.com 1.10,2013-08-04 10:20:00,
2013-08-04 06:35:00,58.4,56.0,29.91,WSW,255,6.0,-999.0,90,-99.99,,,0.00,18,weatherlink.com 1.10,2013-08-04 10:35:00,
2013-08-04 06:50:00,58.6,56.0,29.91,West,267,4.0,-999.0,90,-99.99,,,0.00,28,weatherlink.com 1.10,2013-08-04 10:50:00,
2013-08-04 07:06:00,59.0,56.0,29.91,West,277,3.0,-999.0,90,-99.99,,,0.00,49,weatherlink.com 1.10,2013-08-04 11:06:00,
2013-08-04 07:20:00,59.3,56.0,29.91,West,277,7.0,-999.0,90,-99.99,,,0.00,74,weatherlink.com 1.10,2013-08-04 11:20:00,
2013-08-04 07:35:00,59.8,57.0,29.91,WSW,238,6.0,-999.0,89,-99.99,,,0.00,76,weatherlink.com 1.10,2013-08-04 11:35:00,
2013-08-04 07:50:00,60.3,57.0,29.92,West,267,5.0,-999.0,89,-99.99,,,0.00,229,weatherlink.com 1.10,2013-08-04 11:50:00,
2013-08-04 08:05:00,60.9,58.0,29.92,West,259,7.0,-999.0,89,-99.99,,,0.00,216,weatherlink.com 1.10,2013-08-04 12:05:00,
2013-08-04 08:20:00,61.7,58.0,29.92,WNW,284,7.0,-999.0,88,-99.99,,,0.00,179,weatherlink.com 1.10,2013-08-04 12:20:00,
2013-08-04 08:35:00,62.6,59.0,29.92,WSW,254,8.0,-999.0,87,-99.99,,,0.00,116,weatherlink.com 1.10,2013-08-04 12:35:00,
2013-08-04 08:50:00,62.6,58.0,29.92,West,261,3.0,-999.0,86,-99.99,,,0.00,265,weatherlink.com 1.10,2013-08-04 12:50:00,
2013-08-04 09:05:00,63.2,59.0,29.93,WSW,252,9.0,-999.0,86,-99.99,,,0.00,264,weatherlink.com 1.10,2013-08-04 13:05:00,
2013-08-04 09:20:00,63.5,59.0,29.93,SW,217,7.0,-999.0,85,-99.99,,,0.00,84,weatherlink.com 1.10,2013-08-04 13:20:00,
2013-08-04 09:35:00,62.9,59.0,29.93,SW,229,6.0,-999.0,87,-99.99,,,0.00,186,weatherlink.com 1.10,2013-08-04 13:35:00,
2013-08-04 09:50:00,63.6,60.0,29.93,West,277,10.0,-999.0,87,-99.99,,,0.00,93,weatherlink.com 1.10,2013-08-04 13:50:00,
2013-08-04 10:05:00,63.5,60.0,29.93,West,261,6.0,-999.0,87,-99.99,,,0.00,200,weatherlink.com 1.10,2013-08-04 14:05:00,
2013-08-04 10:21:00,64.1,61.0,29.94,NW,309,6.0,-999.0,88,-99.99,,,0.00,98,weatherlink.com 1.10,2013-08-04 14:21:00,
2013-08-04 10:36:00,65.2,60.0,29.95,NW,324,10.0,-999.0,82,-99.99,,,0.00,265,weatherlink.com 1.10,2013-08-04 14:36:00,
2013-08-04 10:51:00,66.5,59.0,29.95,WNW,288,11.0,-999.0,76,-99.99,,,0.00,889,weatherlink.com 1.10,2013-08-04 14:51:00,
2013-08-04 11:06:00,67.2,58.0,29.95,WNW,303,16.0,-999.0,72,-99.99,,,0.00,953,weatherlink.com 1.10,2013-08-04 15:06:00,
2013-08-04 11:21:00,67.3,58.0,29.95,WNW,288,12.0,-999.0,72,-99.99,,,0.00,877,weatherlink.com 1.10,2013-08-04 15:21:00,
2013-08-04 11:35:00,68.1,57.0,29.95,West,259,16.0,-999.0,68,-99.99,,,0.00,942,weatherlink.com 1.10,2013-08-04 15:35:00,
2013-08-04 11:51:00,68.6,57.0,29.96,West,276,10.0,-999.0,66,-99.99,,,0.00,1058,weatherlink.com 1.10,2013-08-04 15:51:00,
2013-08-04 12:06:00,68.3,56.0,29.96,WSW,252,13.0,-999.0,66,-99.99,,,0.00,923,weatherlink.com 1.10,2013-08-04 16:06:00,
2013-08-04 12:21:00,68.3,56.0,29.96,NW,305,19.0,-999.0,65,-99.99,,,0.00,1023,weatherlink.com 1.10,2013-08-04 16:21:00,
2013-08-04 12:36:00,68.4,56.0,29.96,WNW,286,7.0,-999.0,65,-99.99,,,0.00,392,weatherlink.com 1.10,2013-08-04 16:36:00,
2013-08-04 12:51:00,68.1,55.0,29.96,West,279,13.0,-999.0,64,-99.99,,,0.00,1113,weatherlink.com 1.10,2013-08-04 16:51:00,
2013-08-04 13:06:00,68.6,56.0,29.96,West,259,9.0,-999.0,65,-99.99,,,0.00,1085,weatherlink.com 1.10,2013-08-04 17:06:00,
2013-08-04 13:21:00,68.3,56.0,29.96,NW,309,12.0,-999.0,65,-99.99,,,0.00,185,weatherlink.com 1.10,2013-08-04 17:21:00,
2013-08-04 13:36:00,68.5,56.0,29.96,WNW,282,15.0,-999.0,64,-99.99,,,0.00,250,weatherlink.com 1.10,2013-08-04 17:36:00,
2013-08-04 13:51:00,68.7,55.0,29.96,WNW,286,14.0,-999.0,62,-99.99,,,0.00,1005,weatherlink.com 1.10,2013-08-04 17:51:00,
2013-08-04 14:51:00,68.8,54.0,29.97,WNW,292,12.0,-999.0,59,-99.99,,,0.00,1002,weatherlink.com 1.10,2013-08-04 18:51:00,
2013-08-04 15:21:00,68.8,54.0,29.98,West,262,7.0,-999.0,60,-99.99,,,0.00,223,weatherlink.com 1.10,2013-08-04 19:21:00,
2013-08-04 15:36:00,69.3,55.0,29.97,NW,315,19.0,-999.0,61,-99.99,,,0.00,867,weatherlink.com 1.10,2013-08-04 19:36:00,
2013-08-04 15:51:00,69.2,54.0,29.97,WNW,299,11.0,-999.0,59,-99.99,,,0.00,789,weatherlink.com 1.10,2013-08-04 19:51:00,
2013-08-04 16:06:00,69.7,54.0,29.97,West,263,7.0,-999.0,58,-99.99,,,0.00,302,weatherlink.com 1.10,2013-08-04 20:06:00,
2013-08-04 16:21:00,69.9,53.0,29.98,West,280,11.0,-999.0,56,-99.99,,,0.00,399,weatherlink.com 1.10,2013-08-04 20:21:00,
2013-08-04 16:36:00,70.0,53.0,29.97,West,276,16.0,-999.0,56,-99.99,,,0.00,789,weatherlink.com 1.10,2013-08-04 20:36:00,
2013-08-04 16:51:00,70.6,54.0,29.97,West,280,11.0,-999.0,56,-99.99,,,0.00,682,weatherlink.com 1.10,2013-08-04 20:51:00,
2013-08-04 17:21:00,69.8,54.0,29.97,WNW,292,8.0,-999.0,57,-99.99,,,0.00,564,weatherlink.com 1.10,2013-08-04 21:21:00,
2013-08-04 17:36:00,69.2,53.0,29.97,WNW,294,8.0,-999.0,57,-99.99,,,0.00,185,weatherlink.com 1.10,2013-08-04 21:36:00,
2013-08-04 17:51:00,69.4,54.0,29.97,NW,311,7.0,-999.0,58,-99.99,,,0.00,371,weatherlink.com 1.10,2013-08-04 21:51:00,
2013-08-04 18:06:00,69.8,54.0,29.97,West,272,11.0,-999.0,58,-99.99,,,0.00,373,weatherlink.com 1.10,2013-08-04 22:06:00,
2013-08-04 18:21:00,69.3,54.0,29.97,West,278,9.0,-999.0,58,-99.99,,,0.00,336,weatherlink.com 1.10,2013-08-04 22:21:00,
2013-08-04 18:36:00,69.0,53.0,29.97,NW,304,8.0,-999.0,58,-99.99,,,0.00,274,weatherlink.com 1.10,2013-08-04 22:36:00,
2013-08-04 18:51:00,68.7,54.0,29.97,West,281,13.0,-999.0,59,-99.99,,,0.00,229,weatherlink.com 1.10,2013-08-04 22:51:00,
2013-08-04 19:06:00,68.6,53.0,29.97,WNW,288,10.0,-999.0,57,-99.99,,,0.00,169,weatherlink.com 1.10,2013-08-04 23:06:00,
2013-08-04 19:36:00,68.0,53.0,29.98,West,269,6.0,-999.0,60,-99.99,,,0.00,74,weatherlink.com 1.10,2013-08-04 23:36:00,
2013-08-04 19:51:00,67.6,53.0,29.98,West,259,7.0,-999.0,60,-99.99,,,0.00,37,weatherlink.com 1.10,2013-08-04 23:51:00,
2013-08-04 20:06:00,66.9,53.0,29.99,West,265,3.0,-999.0,62,-99.99,,,0.00,12,weatherlink.com 1.10,2013-08-05 00:06:00,
2013-08-04 20:21:00,66.0,53.0,29.99,West,268,4.0,-999.0,64,-99.99,,,0.00,5,weatherlink.com 1.10,2013-08-05 00:21:00,
2013-08-04 20:36:00,65.2,53.0,29.99,WSW,254,5.0,-999.0,65,-99.99,,,0.00,0,weatherlink.com 1.10,2013-08-05 00:36:00,
2013-08-04 20:51:00,64.5,53.0,30.00,West,265,5.0,-999.0,67,-99.99,,,0.00,0,weatherlink.com 1.10,2013-08-05 00:51:00,
2013-08-04 21:06:00,63.9,53.0,30.00,WSW,256,8.0,-999.0,68,-99.99,,,0.00,0,weatherlink.com 1.10,2013-08-05 01:06:00,
2013-08-04 21:21:00,63.7,53.0,30.00,West,275,6.0,-999.0,68,-99.99,,,0.00,0,weatherlink.com 1.10,2013-08-05 01:21:00,
2013-08-04 21:36:00,63.5,53.0,30.00,WSW,255,7.0,-999.0,69,-99.99,,,0.00,0,weatherlink.com 1.10,2013-08-05 01:36:00,
2013-08-04 21:51:00,63.1,53.0,30.00,West,259,2.0,-999.0,70,-99.99,,,0.00,0,weatherlink.com 1.10,2013-08-05 01:51:00,
2013-08-04 22:07:00,62.6,53.0,30.00,WSW,252,1.0,-999.0,71,-99.99,,,0.00,0,weatherlink.com 1.10,2013-08-05 02:07:00,
2013-08-04 22:21:00,62.2,53.0,30.00,WSW,257,5.0,-999.0,72,-99.99,,,0.00,0,weatherlink.com 1.10,2013-08-05 02:21:00,
2013-08-04 22:52:00,61.6,53.0,30.00,West,269,4.0,-999.0,73,-99.99,,,0.00,0,weatherlink.com 1.10,2013-08-05 02:52:00,
2013-08-04 23:06:00,61.5,53.0,30.00,West,275,1.0,-999.0,74,-99.99,,,0.00,0,weatherlink.com 1.10,2013-08-05 03:06:00,
2013-08-04 23:22:00,61.1,53.0,30.01,WSW,250,7.0,-999.0,75,-99.99,,,0.00,0,weatherlink.com 1.10,2013-08-05 03:22:00,
2013-08-04 23:36:00,60.7,53.0,30.01,WSW,249,1.0,-999.0,76,-99.99,,,0.00,0,weatherlink.com 1.10,2013-08-05 03:36:00,
2013-08-04 23:52:00,60.1,53.0,30.01,WSW,252,1.0,-999.0,78,-99.99,,,0.00,0,weatherlink.com 1.10,2013-08-05 03:52:00,